sensor_id;sensor_type;location;lat;lon;timestamp;temperature;humidity
42617;DHT22;28250;52.320;0.360;2022-09-23T00:01:04;14.70;99.90
42617;DHT22;28250;52.320;0.360;2022-09-23T00:03:34;14.70;99.90
42617;DHT22;28250;52.320;0.360;2022-09-23T00:06:05;14.70;99.90
42617;DHT22;28250;52.320;0.360;2022-09-23T00:08:33;14.70;99.90
42617;DHT22;28250;52.320;0.360;2022-09-23T00:11:27;14.70;99.90
42617;DHT22;28250;52.320;0.360;2022-09-23T00:13:57;14.70;99.90
42617;DHT22;28250;52.320;0.360;2022-09-23T00:16:29;14.70;99.90
42617;DHT22;28250;52.320;0.360;2022-09-23T00:19:00;14.70;99.90
42617;DHT22;28250;52.320;0.360;2022-09-23T00:21:27;14.70;99.90
42617;DHT22;28250;52.320;0.360;2022-09-23T00:23:54;14.70;99.90
42617;DHT22;28250;52.320;0.360;2022-09-23T00:26:23;14.80;99.90
42617;DHT22;28250;52.320;0.360;2022-09-23T00:28:50;14.80;99.90
42617;DHT22;28250;52.320;0.360;2022-09-23T00:31:20;14.70;99.90
42617;DHT22;28250;52.320;0.360;2022-09-23T00:33:54;14.80;99.90
42617;DHT22;28250;52.320;0.360;2022-09-23T00:36:23;14.70;99.90
42617;DHT22;28250;52.320;0.360;2022-09-23T00:38:51;14.80;99.90
42617;DHT22;28250;52.320;0.360;2022-09-23T00:41:18;14.80;99.90
42617;DHT22;28250;52.320;0.360;2022-09-23T00:43:51;14.70;99.90
42617;DHT22;28250;52.320;0.360;2022-09-23T00:49:13;14.70;99.90
42617;DHT22;28250;52.320;0.360;2022-09-23T00:51:48;14.60;99.90
42617;DHT22;28250;52.320;0.360;2022-09-23T00:54:20;14.60;99.90
42617;DHT22;28250;52.320;0.360;2022-09-23T00:56:49;14.50;99.90
42617;DHT22;28250;52.320;0.360;2022-09-23T00:59:16;14.50;99.90
42617;DHT22;28250;52.320;0.360;2022-09-23T01:01:43;14.40;99.90
42617;DHT22;28250;52.320;0.360;2022-09-23T01:04:11;14.50;99.90
42617;DHT22;28250;52.320;0.360;2022-09-23T01:06:39;14.40;99.90
42617;DHT22;28250;52.320;0.360;2022-09-23T01:09:06;14.40;99.90
42617;DHT22;28250;52.320;0.360;2022-09-23T01:11:39;14.30;99.90
42617;DHT22;28250;52.320;0.360;2022-09-23T01:14:36;14.40;99.90
42617;DHT22;28250;52.320;0.360;2022-09-23T01:20:17;14.40;99.90
42617;DHT22;28250;52.320;0.360;2022-09-23T01:37:13;14.30;99.90
42617;DHT22;28250;52.320;0.360;2022-09-23T01:40:19;14.30;99.90
42617;DHT22;28250;52.320;0.360;2022-09-23T01:43:08;14.30;99.90
42617;DHT22;28250;52.320;0.360;2022-09-23T01:45:45;14.30;99.90
42617;DHT22;28250;52.320;0.360;2022-09-23T01:48:16;14.30;99.90
42617;DHT22;28250;52.320;0.360;2022-09-23T01:50:54;14.30;99.90
42617;DHT22;28250;52.320;0.360;2022-09-23T01:53:48;14.30;99.90
42617;DHT22;28250;52.320;0.360;2022-09-23T01:56:29;14.30;99.90
42617;DHT22;28250;52.320;0.360;2022-09-23T01:59:15;14.30;99.90
42617;DHT22;28250;52.320;0.360;2022-09-23T02:01:55;14.30;99.90
42617;DHT22;28250;52.320;0.360;2022-09-23T02:04:32;14.20;99.90
42617;DHT22;28250;52.320;0.360;2022-09-23T02:07:20;14.30;99.90
42617;DHT22;28250;52.320;0.360;2022-09-23T02:09:58;14.30;99.90
42617;DHT22;28250;52.320;0.360;2022-09-23T02:12:33;14.30;99.90
42617;DHT22;28250;52.320;0.360;2022-09-23T02:15:07;14.30;99.90
42617;DHT22;28250;52.320;0.360;2022-09-23T02:17:58;14.30;99.90
42617;DHT22;28250;52.320;0.360;2022-09-23T02:20:32;14.30;99.90
42617;DHT22;28250;52.320;0.360;2022-09-23T02:25:56;14.30;99.90
42617;DHT22;28250;52.320;0.360;2022-09-23T02:28:34;14.30;99.90
42617;DHT22;28250;52.320;0.360;2022-09-23T02:31:07;14.20;99.90
42617;DHT22;28250;52.320;0.360;2022-09-23T02:33:45;14.20;99.90
42617;DHT22;28250;52.320;0.360;2022-09-23T02:39:10;14.20;99.90
42617;DHT22;28250;52.320;0.360;2022-09-23T02:41:49;14.20;99.90
42617;DHT22;28250;52.320;0.360;2022-09-23T02:44:20;14.30;99.90
42617;DHT22;28250;52.320;0.360;2022-09-23T02:46:49;14.20;99.90
42617;DHT22;28250;52.320;0.360;2022-09-23T02:49:22;14.30;99.90
42617;DHT22;28250;52.320;0.360;2022-09-23T02:51:50;14.30;99.90
42617;DHT22;28250;52.320;0.360;2022-09-23T02:54:23;14.30;99.90
42617;DHT22;28250;52.320;0.360;2022-09-23T02:56:51;14.20;99.90
42617;DHT22;28250;52.320;0.360;2022-09-23T02:59:20;14.20;99.90
42617;DHT22;28250;52.320;0.360;2022-09-23T03:19:01;14.20;99.90
42617;DHT22;28250;52.320;0.360;2022-09-23T03:21:48;14.20;99.90
42617;DHT22;28250;52.320;0.360;2022-09-23T03:24:21;14.20;99.90
42617;DHT22;28250;52.320;0.360;2022-09-23T03:26:49;14.10;99.90
42617;DHT22;28250;52.320;0.360;2022-09-23T03:29:18;14.20;99.90
42617;DHT22;28250;52.320;0.360;2022-09-23T03:31:45;14.10;99.90
42617;DHT22;28250;52.320;0.360;2022-09-23T03:34:17;14.10;99.90
42617;DHT22;28250;52.320;0.360;2022-09-23T03:36:53;14.20;99.90
42617;DHT22;28250;52.320;0.360;2022-09-23T03:44:56;14.10;99.90
42617;DHT22;28250;52.320;0.360;2022-09-23T03:47:25;14.20;99.90
42617;DHT22;28250;52.320;0.360;2022-09-23T03:49:53;14.20;99.90
42617;DHT22;28250;52.320;0.360;2022-09-23T03:52:24;14.20;99.90
42617;DHT22;28250;52.320;0.360;2022-09-23T03:54:51;14.20;99.90
42617;DHT22;28250;52.320;0.360;2022-09-23T03:57:19;14.20;99.90
42617;DHT22;28250;52.320;0.360;2022-09-23T03:59:49;14.30;99.90
42617;DHT22;28250;52.320;0.360;2022-09-23T04:02:18;14.20;99.90
42617;DHT22;28250;52.320;0.360;2022-09-23T04:04:45;14.30;99.90
42617;DHT22;28250;52.320;0.360;2022-09-23T04:07:12;14.20;99.90
42617;DHT22;28250;52.320;0.360;2022-09-23T04:09:38;14.20;99.90
42617;DHT22;28250;52.320;0.360;2022-09-23T04:12:06;14.20;99.90
42617;DHT22;28250;52.320;0.360;2022-09-23T04:14:32;14.20;99.90
42617;DHT22;28250;52.320;0.360;2022-09-23T04:16:59;14.30;99.90
42617;DHT22;28250;52.320;0.360;2022-09-23T04:19:26;14.20;99.90
42617;DHT22;28250;52.320;0.360;2022-09-23T04:21:53;14.30;99.90
42617;DHT22;28250;52.320;0.360;2022-09-23T04:24:19;14.30;99.90
42617;DHT22;28250;52.320;0.360;2022-09-23T04:26:51;14.30;99.90
42617;DHT22;28250;52.320;0.360;2022-09-23T04:29:19;14.30;99.90
42617;DHT22;28250;52.320;0.360;2022-09-23T04:31:47;14.20;99.90
42617;DHT22;28250;52.320;0.360;2022-09-23T04:34:16;14.30;99.90
42617;DHT22;28250;52.320;0.360;2022-09-23T04:36:44;14.30;99.90
42617;DHT22;28250;52.320;0.360;2022-09-23T04:39:13;14.30;99.90
42617;DHT22;28250;52.320;0.360;2022-09-23T04:41:41;14.30;99.90
42617;DHT22;28250;52.320;0.360;2022-09-23T04:44:09;14.30;99.90
42617;DHT22;28250;52.320;0.360;2022-09-23T04:46:37;14.30;99.90
42617;DHT22;28250;52.320;0.360;2022-09-23T04:49:06;14.30;99.90
42617;DHT22;28250;52.320;0.360;2022-09-23T04:51:33;14.30;99.90
42617;DHT22;28250;52.320;0.360;2022-09-23T04:54:00;14.30;99.90
42617;DHT22;28250;52.320;0.360;2022-09-23T04:56:29;14.30;99.90
42617;DHT22;28250;52.320;0.360;2022-09-23T04:58:58;14.30;99.90
42617;DHT22;28250;52.320;0.360;2022-09-23T05:01:28;14.20;99.90
42617;DHT22;28250;52.320;0.360;2022-09-23T05:03:58;14.20;99.90
42617;DHT22;28250;52.320;0.360;2022-09-23T05:06:28;14.30;99.90
42617;DHT22;28250;52.320;0.360;2022-09-23T05:08:57;14.30;99.90
42617;DHT22;28250;52.320;0.360;2022-09-23T05:11:25;14.30;99.90
42617;DHT22;28250;52.320;0.360;2022-09-23T05:13:53;14.30;99.90
42617;DHT22;28250;52.320;0.360;2022-09-23T05:16:20;14.30;99.90
42617;DHT22;28250;52.320;0.360;2022-09-23T05:18:49;14.30;99.90
42617;DHT22;28250;52.320;0.360;2022-09-23T05:21:19;14.30;99.90
42617;DHT22;28250;52.320;0.360;2022-09-23T05:23:50;14.30;99.90
42617;DHT22;28250;52.320;0.360;2022-09-23T05:26:21;14.30;99.90
42617;DHT22;28250;52.320;0.360;2022-09-23T05:28:50;14.30;99.90
42617;DHT22;28250;52.320;0.360;2022-09-23T05:31:20;14.30;99.90
42617;DHT22;28250;52.320;0.360;2022-09-23T05:33:50;14.30;99.90
42617;DHT22;28250;52.320;0.360;2022-09-23T05:36:19;14.30;99.90
42617;DHT22;28250;52.320;0.360;2022-09-23T05:38:47;14.30;99.90
42617;DHT22;28250;52.320;0.360;2022-09-23T05:41:15;14.30;99.90
42617;DHT22;28250;52.320;0.360;2022-09-23T05:43:42;14.40;99.90
42617;DHT22;28250;52.320;0.360;2022-09-23T05:46:11;14.30;99.90
42617;DHT22;28250;52.320;0.360;2022-09-23T05:48:40;14.30;99.90
42617;DHT22;28250;52.320;0.360;2022-09-23T05:51:08;14.30;99.90
42617;DHT22;28250;52.320;0.360;2022-09-23T05:53:39;14.30;99.90
42617;DHT22;28250;52.320;0.360;2022-09-23T05:56:06;14.30;99.90
42617;DHT22;28250;52.320;0.360;2022-09-23T05:58:33;14.30;99.90
42617;DHT22;28250;52.320;0.360;2022-09-23T06:00:59;14.30;99.90
42617;DHT22;28250;52.320;0.360;2022-09-23T06:03:26;14.30;99.90
42617;DHT22;28250;52.320;0.360;2022-09-23T06:05:54;14.40;99.90
42617;DHT22;28250;52.320;0.360;2022-09-23T06:08:21;14.30;99.90
42617;DHT22;28250;52.320;0.360;2022-09-23T06:10:49;14.30;99.90
42617;DHT22;28250;52.320;0.360;2022-09-23T06:13:15;14.40;99.90
42617;DHT22;28250;52.320;0.360;2022-09-23T06:15:42;14.30;99.90
42617;DHT22;28250;52.320;0.360;2022-09-23T06:18:10;14.40;99.90
42617;DHT22;28250;52.320;0.360;2022-09-23T06:20:38;14.30;99.90
42617;DHT22;28250;52.320;0.360;2022-09-23T06:23:06;14.30;99.90
42617;DHT22;28250;52.320;0.360;2022-09-23T06:25:36;14.40;99.90
42617;DHT22;28250;52.320;0.360;2022-09-23T06:28:04;14.40;99.90
42617;DHT22;28250;52.320;0.360;2022-09-23T06:30:37;14.30;99.90
42617;DHT22;28250;52.320;0.360;2022-09-23T06:33:04;14.30;99.90
42617;DHT22;28250;52.320;0.360;2022-09-23T06:35:31;14.40;99.90
42617;DHT22;28250;52.320;0.360;2022-09-23T06:37:58;14.40;99.90
42617;DHT22;28250;52.320;0.360;2022-09-23T06:40:28;14.40;99.90
42617;DHT22;28250;52.320;0.360;2022-09-23T06:42:58;14.40;99.90
42617;DHT22;28250;52.320;0.360;2022-09-23T06:45:26;14.40;99.90
42617;DHT22;28250;52.320;0.360;2022-09-23T06:47:53;14.40;99.90
42617;DHT22;28250;52.320;0.360;2022-09-23T06:50:21;14.40;99.90
42617;DHT22;28250;52.320;0.360;2022-09-23T06:52:52;14.40;99.90
42617;DHT22;28250;52.320;0.360;2022-09-23T06:55:23;14.40;99.90
42617;DHT22;28250;52.320;0.360;2022-09-23T06:57:56;14.40;99.90
42617;DHT22;28250;52.320;0.360;2022-09-23T07:00:23;14.40;99.90
42617;DHT22;28250;52.320;0.360;2022-09-23T07:02:51;14.40;99.90
42617;DHT22;28250;52.320;0.360;2022-09-23T07:05:19;14.40;99.90
42617;DHT22;28250;52.320;0.360;2022-09-23T07:07:47;14.40;99.90
42617;DHT22;28250;52.320;0.360;2022-09-23T07:10:14;14.40;99.90
42617;DHT22;28250;52.320;0.360;2022-09-23T07:12:40;14.40;99.90
42617;DHT22;28250;52.320;0.360;2022-09-23T07:15:07;14.40;99.90
42617;DHT22;28250;52.320;0.360;2022-09-23T07:17:34;14.50;99.90
42617;DHT22;28250;52.320;0.360;2022-09-23T07:20:02;14.40;99.90
42617;DHT22;28250;52.320;0.360;2022-09-23T07:22:29;14.50;99.90
42617;DHT22;28250;52.320;0.360;2022-09-23T07:24:56;14.50;99.90
42617;DHT22;28250;52.320;0.360;2022-09-23T07:27:24;14.40;99.90
42617;DHT22;28250;52.320;0.360;2022-09-23T07:29:52;14.40;99.90
42617;DHT22;28250;52.320;0.360;2022-09-23T07:32:21;14.40;99.90
42617;DHT22;28250;52.320;0.360;2022-09-23T07:34:48;14.40;99.90
42617;DHT22;28250;52.320;0.360;2022-09-23T07:37:15;14.40;99.90
42617;DHT22;28250;52.320;0.360;2022-09-23T07:39:43;14.30;99.90
42617;DHT22;28250;52.320;0.360;2022-09-23T07:42:10;14.30;99.90
42617;DHT22;28250;52.320;0.360;2022-09-23T07:44:39;14.40;99.90
42617;DHT22;28250;52.320;0.360;2022-09-23T07:47:08;14.40;99.90
42617;DHT22;28250;52.320;0.360;2022-09-23T07:49:35;14.50;99.90
42617;DHT22;28250;52.320;0.360;2022-09-23T07:52:02;14.50;99.90
42617;DHT22;28250;52.320;0.360;2022-09-23T07:54:29;14.50;99.90
42617;DHT22;28250;52.320;0.360;2022-09-23T07:56:57;14.50;99.90
42617;DHT22;28250;52.320;0.360;2022-09-23T07:59:23;14.40;99.90
42617;DHT22;28250;52.320;0.360;2022-09-23T08:01:52;14.40;99.90
42617;DHT22;28250;52.320;0.360;2022-09-23T08:04:21;14.40;99.90
42617;DHT22;28250;52.320;0.360;2022-09-23T08:06:53;14.50;99.90
42617;DHT22;28250;52.320;0.360;2022-09-23T08:09:23;14.40;99.90
42617;DHT22;28250;52.320;0.360;2022-09-23T08:11:52;14.50;99.90
42617;DHT22;28250;52.320;0.360;2022-09-23T08:14:19;14.40;99.90
42617;DHT22;28250;52.320;0.360;2022-09-23T08:16:47;14.40;99.90
42617;DHT22;28250;52.320;0.360;2022-09-23T08:19:15;14.40;99.90
42617;DHT22;28250;52.320;0.360;2022-09-23T08:21:42;14.40;99.90
42617;DHT22;28250;52.320;0.360;2022-09-23T08:24:15;14.50;99.90
42617;DHT22;28250;52.320;0.360;2022-09-23T08:26:43;14.50;99.90
42617;DHT22;28250;52.320;0.360;2022-09-23T08:29:13;14.50;99.90
42617;DHT22;28250;52.320;0.360;2022-09-23T08:31:43;14.40;99.90
42617;DHT22;28250;52.320;0.360;2022-09-23T08:34:10;14.40;99.90
42617;DHT22;28250;52.320;0.360;2022-09-23T08:36:36;14.30;99.90
42617;DHT22;28250;52.320;0.360;2022-09-23T08:39:04;14.40;99.90
42617;DHT22;28250;52.320;0.360;2022-09-23T08:47:52;14.50;99.90
42617;DHT22;28250;52.320;0.360;2022-09-23T08:50:28;14.50;99.90
42617;DHT22;28250;52.320;0.360;2022-09-23T08:53:10;14.40;99.90
42617;DHT22;28250;52.320;0.360;2022-09-23T08:55:45;14.50;99.90
42617;DHT22;28250;52.320;0.360;2022-09-23T09:15:20;14.70;99.90
42617;DHT22;28250;52.320;0.360;2022-09-23T09:18:17;14.80;99.90
42617;DHT22;28250;52.320;0.360;2022-09-23T09:27:07;15.00;99.90
42617;DHT22;28250;52.320;0.360;2022-09-23T09:29:41;15.00;99.90
42617;DHT22;28250;52.320;0.360;2022-09-23T09:32:34;15.30;99.90
42617;DHT22;28250;52.320;0.360;2022-09-23T09:35:19;15.50;99.90
42617;DHT22;28250;52.320;0.360;2022-09-23T09:37:51;15.30;99.90
42617;DHT22;28250;52.320;0.360;2022-09-23T09:40:18;15.30;99.90
42617;DHT22;28250;52.320;0.360;2022-09-23T09:42:47;15.30;99.90
42617;DHT22;28250;52.320;0.360;2022-09-23T09:50:43;15.20;99.90
42617;DHT22;28250;52.320;0.360;2022-09-23T09:53:15;15.30;99.90
42617;DHT22;28250;52.320;0.360;2022-09-23T09:55:42;15.50;99.90
42617;DHT22;28250;52.320;0.360;2022-09-23T09:58:11;15.40;99.90
42617;DHT22;28250;52.320;0.360;2022-09-23T10:00:43;15.40;99.90
42617;DHT22;28250;52.320;0.360;2022-09-23T10:08:30;15.70;99.90
42617;DHT22;28250;52.320;0.360;2022-09-23T10:11:10;15.40;99.90
42617;DHT22;28250;52.320;0.360;2022-09-23T10:16:27;15.60;99.90
42617;DHT22;28250;52.320;0.360;2022-09-23T10:18:58;15.50;99.90
42617;DHT22;28250;52.320;0.360;2022-09-23T10:21:33;15.80;99.90
42617;DHT22;28250;52.320;0.360;2022-09-23T10:24:05;15.80;99.90
42617;DHT22;28250;52.320;0.360;2022-09-23T10:26:33;15.90;99.90
42617;DHT22;28250;52.320;0.360;2022-09-23T10:35:12;15.90;99.90
42617;DHT22;28250;52.320;0.360;2022-09-23T10:38:00;16.00;99.90
42617;DHT22;28250;52.320;0.360;2022-09-23T10:46:26;16.50;99.90
42617;DHT22;28250;52.320;0.360;2022-09-23T11:03:37;16.40;99.90
42617;DHT22;28250;52.320;0.360;2022-09-23T11:12:13;16.80;99.90
42617;DHT22;28250;52.320;0.360;2022-09-23T11:14:54;16.80;99.90
42617;DHT22;28250;52.320;0.360;2022-09-23T11:37:03;18.00;99.90
42617;DHT22;28250;52.320;0.360;2022-09-23T11:39:40;17.80;99.90
42617;DHT22;28250;52.320;0.360;2022-09-23T11:42:14;17.50;99.90
42617;DHT22;28250;52.320;0.360;2022-09-23T11:44:50;17.40;99.90
42617;DHT22;28250;52.320;0.360;2022-09-23T11:47:28;17.50;99.90
42617;DHT22;28250;52.320;0.360;2022-09-23T11:52:37;17.50;99.90
42617;DHT22;28250;52.320;0.360;2022-09-23T11:58:05;17.70;99.90
42617;DHT22;28250;52.320;0.360;2022-09-23T12:00:43;17.60;99.90
42617;DHT22;28250;52.320;0.360;2022-09-23T12:03:20;17.50;99.90
42617;DHT22;28250;52.320;0.360;2022-09-23T12:06:00;17.50;99.90
42617;DHT22;28250;52.320;0.360;2022-09-23T12:08:32;17.80;99.90
42617;DHT22;28250;52.320;0.360;2022-09-23T12:13:53;17.70;99.90
42617;DHT22;28250;52.320;0.360;2022-09-23T12:26:43;18.30;99.90
42617;DHT22;28250;52.320;0.360;2022-09-23T12:29:15;18.50;99.90
42617;DHT22;28250;52.320;0.360;2022-09-23T12:31:42;18.80;99.90
42617;DHT22;28250;52.320;0.360;2022-09-23T12:34:40;18.70;99.90
42617;DHT22;28250;52.320;0.360;2022-09-23T12:37:30;18.60;99.90
42617;DHT22;28250;52.320;0.360;2022-09-23T12:40:15;18.50;99.90
42617;DHT22;28250;52.320;0.360;2022-09-23T12:42:48;18.50;99.90
42617;DHT22;28250;52.320;0.360;2022-09-23T12:48:26;18.60;99.90
42617;DHT22;28250;52.320;0.360;2022-09-23T12:51:16;18.80;99.90
42617;DHT22;28250;52.320;0.360;2022-09-23T12:56:19;18.70;99.90
42617;DHT22;28250;52.320;0.360;2022-09-23T13:03:48;19.50;99.90
42617;DHT22;28250;52.320;0.360;2022-09-23T13:09:21;20.30;99.90
42617;DHT22;28250;52.320;0.360;2022-09-23T13:11:51;20.50;99.90
42617;DHT22;28250;52.320;0.360;2022-09-23T13:14:26;20.30;99.90
42617;DHT22;28250;52.320;0.360;2022-09-23T13:16:55;20.30;99.90
42617;DHT22;28250;52.320;0.360;2022-09-23T13:26:56;20.20;99.90
42617;DHT22;28250;52.320;0.360;2022-09-23T13:32:31;20.80;99.90
42617;DHT22;28250;52.320;0.360;2022-09-23T13:35:05;20.70;99.90
42617;DHT22;28250;52.320;0.360;2022-09-23T13:37:43;20.70;99.90
42617;DHT22;28250;52.320;0.360;2022-09-23T13:40:30;20.10;99.90
42617;DHT22;28250;52.320;0.360;2022-09-23T13:43:02;19.70;99.90
42617;DHT22;28250;52.320;0.360;2022-09-23T13:45:31;19.90;99.90
42617;DHT22;28250;52.320;0.360;2022-09-23T13:48:07;20.00;99.90
42617;DHT22;28250;52.320;0.360;2022-09-23T13:50:38;20.10;99.90
42617;DHT22;28250;52.320;0.360;2022-09-23T13:53:14;20.10;99.90
42617;DHT22;28250;52.320;0.360;2022-09-23T13:55:45;20.00;99.90
42617;DHT22;28250;52.320;0.360;2022-09-23T13:58:20;19.50;99.90
42617;DHT22;28250;52.320;0.360;2022-09-23T14:00:49;19.30;99.90
42617;DHT22;28250;52.320;0.360;2022-09-23T14:03:23;19.00;99.90
42617;DHT22;28250;52.320;0.360;2022-09-23T14:05:59;19.00;99.90
42617;DHT22;28250;52.320;0.360;2022-09-23T14:08:28;19.30;99.90
42617;DHT22;28250;52.320;0.360;2022-09-23T14:10:56;19.70;99.90
42617;DHT22;28250;52.320;0.360;2022-09-23T14:13:27;19.70;99.90
42617;DHT22;28250;52.320;0.360;2022-09-23T14:15:58;19.40;99.90
42617;DHT22;28250;52.320;0.360;2022-09-23T14:24:32;19.40;99.90
42617;DHT22;28250;52.320;0.360;2022-09-23T14:29:42;18.70;99.90
42617;DHT22;28250;52.320;0.360;2022-09-23T14:32:14;18.60;99.90
42617;DHT22;28250;52.320;0.360;2022-09-23T14:45:48;18.90;99.90
42617;DHT22;28250;52.320;0.360;2022-09-23T14:48:21;18.90;99.90
42617;DHT22;28250;52.320;0.360;2022-09-23T14:50:56;18.60;99.90
42617;DHT22;28250;52.320;0.360;2022-09-23T14:53:43;18.60;99.90
42617;DHT22;28250;52.320;0.360;2022-09-23T15:07:03;19.30;99.90
42617;DHT22;28250;52.320;0.360;2022-09-23T15:09:37;19.50;99.90
42617;DHT22;28250;52.320;0.360;2022-09-23T15:12:10;19.60;99.90
42617;DHT22;28250;52.320;0.360;2022-09-23T15:14:44;19.60;99.90
42617;DHT22;28250;52.320;0.360;2022-09-23T15:17:29;19.40;99.90
42617;DHT22;28250;52.320;0.360;2022-09-23T15:20:02;19.40;99.90
42617;DHT22;28250;52.320;0.360;2022-09-23T15:22:31;19.30;99.90
42617;DHT22;28250;52.320;0.360;2022-09-23T15:30:38;18.60;99.90
42617;DHT22;28250;52.320;0.360;2022-09-23T15:33:06;18.30;99.90
42617;DHT22;28250;52.320;0.360;2022-09-23T15:35:35;18.20;99.90
42617;DHT22;28250;52.320;0.360;2022-09-23T15:38:02;18.40;99.90
42617;DHT22;28250;52.320;0.360;2022-09-23T15:40:31;18.20;99.90
42617;DHT22;28250;52.320;0.360;2022-09-23T15:43:18;18.40;99.90
42617;DHT22;28250;52.320;0.360;2022-09-23T15:45:53;18.40;99.90
42617;DHT22;28250;52.320;0.360;2022-09-23T15:48:26;18.40;99.90
42617;DHT22;28250;52.320;0.360;2022-09-23T15:50:57;18.30;99.90
42617;DHT22;28250;52.320;0.360;2022-09-23T15:53:29;18.20;99.90
42617;DHT22;28250;52.320;0.360;2022-09-23T15:55:56;18.00;99.90
42617;DHT22;28250;52.320;0.360;2022-09-23T15:58:23;17.90;99.90
42617;DHT22;28250;52.320;0.360;2022-09-23T16:00:53;17.90;99.90
42617;DHT22;28250;52.320;0.360;2022-09-23T16:03:22;17.80;99.90
42617;DHT22;28250;52.320;0.360;2022-09-23T16:05:56;17.70;99.90
42617;DHT22;28250;52.320;0.360;2022-09-23T16:08:29;17.70;99.90
42617;DHT22;28250;52.320;0.360;2022-09-23T16:10:57;17.70;99.90
42617;DHT22;28250;52.320;0.360;2022-09-23T16:13:24;17.70;99.90
42617;DHT22;28250;52.320;0.360;2022-09-23T16:15:51;17.60;99.90
42617;DHT22;28250;52.320;0.360;2022-09-23T16:18:17;17.50;99.90
42617;DHT22;28250;52.320;0.360;2022-09-23T16:20:45;17.40;99.90
42617;DHT22;28250;52.320;0.360;2022-09-23T16:23:32;17.40;99.90
42617;DHT22;28250;52.320;0.360;2022-09-23T16:26:00;17.40;99.90
42617;DHT22;28250;52.320;0.360;2022-09-23T16:28:27;17.40;99.90
42617;DHT22;28250;52.320;0.360;2022-09-23T16:30:54;17.40;99.90
42617;DHT22;28250;52.320;0.360;2022-09-23T16:33:21;17.30;99.90
42617;DHT22;28250;52.320;0.360;2022-09-23T16:35:48;17.40;99.90
42617;DHT22;28250;52.320;0.360;2022-09-23T16:38:15;17.20;99.90
42617;DHT22;28250;52.320;0.360;2022-09-23T16:40:42;17.20;99.90
42617;DHT22;28250;52.320;0.360;2022-09-23T16:43:09;17.00;99.90
42617;DHT22;28250;52.320;0.360;2022-09-23T16:45:36;17.00;99.90
42617;DHT22;28250;52.320;0.360;2022-09-23T16:48:04;17.00;99.90
42617;DHT22;28250;52.320;0.360;2022-09-23T16:50:30;17.00;99.90
42617;DHT22;28250;52.320;0.360;2022-09-23T16:52:58;17.00;99.90
42617;DHT22;28250;52.320;0.360;2022-09-23T16:55:25;16.90;99.90
42617;DHT22;28250;52.320;0.360;2022-09-23T16:57:52;16.90;99.90
42617;DHT22;28250;52.320;0.360;2022-09-23T17:00:19;16.90;99.90
42617;DHT22;28250;52.320;0.360;2022-09-23T17:03:05;16.80;99.90
42617;DHT22;28250;52.320;0.360;2022-09-23T17:05:50;16.60;99.90
42617;DHT22;28250;52.320;0.360;2022-09-23T17:08:17;16.40;99.90
42617;DHT22;28250;52.320;0.360;2022-09-23T17:10:46;16.40;99.90
42617;DHT22;28250;52.320;0.360;2022-09-23T17:13:21;16.30;99.90
42617;DHT22;28250;52.320;0.360;2022-09-23T17:15:48;16.20;99.90
42617;DHT22;28250;52.320;0.360;2022-09-23T17:18:16;16.20;99.90
42617;DHT22;28250;52.320;0.360;2022-09-23T17:20:43;16.10;99.90
42617;DHT22;28250;52.320;0.360;2022-09-23T17:23:10;16.00;99.90
42617;DHT22;28250;52.320;0.360;2022-09-23T17:25:36;15.80;99.90
42617;DHT22;28250;52.320;0.360;2022-09-23T17:28:03;15.80;99.90
42617;DHT22;28250;52.320;0.360;2022-09-23T17:30:29;15.70;99.90
42617;DHT22;28250;52.320;0.360;2022-09-23T17:32:56;15.60;99.90
42617;DHT22;28250;52.320;0.360;2022-09-23T17:35:22;15.50;99.90
42617;DHT22;28250;52.320;0.360;2022-09-23T17:37:49;15.40;99.90
42617;DHT22;28250;52.320;0.360;2022-09-23T17:40:15;15.40;99.90
42617;DHT22;28250;52.320;0.360;2022-09-23T17:42:42;15.30;99.90
42617;DHT22;28250;52.320;0.360;2022-09-23T17:45:09;15.20;99.90
42617;DHT22;28250;52.320;0.360;2022-09-23T17:47:37;15.10;99.90
42617;DHT22;28250;52.320;0.360;2022-09-23T17:50:05;15.00;99.90
42617;DHT22;28250;52.320;0.360;2022-09-23T17:52:32;14.90;99.90
42617;DHT22;28250;52.320;0.360;2022-09-23T17:54:58;14.80;99.90
42617;DHT22;28250;52.320;0.360;2022-09-23T17:57:25;14.70;99.90
42617;DHT22;28250;52.320;0.360;2022-09-23T17:59:51;14.70;99.90
42617;DHT22;28250;52.320;0.360;2022-09-23T18:02:18;14.60;99.90
42617;DHT22;28250;52.320;0.360;2022-09-23T18:04:47;14.50;99.90
42617;DHT22;28250;52.320;0.360;2022-09-23T18:07:14;14.50;99.90
42617;DHT22;28250;52.320;0.360;2022-09-23T18:09:40;14.40;99.90
42617;DHT22;28250;52.320;0.360;2022-09-23T18:12:07;14.30;99.90
42617;DHT22;28250;52.320;0.360;2022-09-23T18:14:33;14.20;99.90
42617;DHT22;28250;52.320;0.360;2022-09-23T18:17:01;14.10;99.90
42617;DHT22;28250;52.320;0.360;2022-09-23T18:19:27;14.10;99.90
42617;DHT22;28250;52.320;0.360;2022-09-23T18:21:54;14.00;99.90
42617;DHT22;28250;52.320;0.360;2022-09-23T18:24:22;13.90;99.90
42617;DHT22;28250;52.320;0.360;2022-09-23T18:26:49;13.90;99.90
42617;DHT22;28250;52.320;0.360;2022-09-23T18:29:20;13.80;99.90
42617;DHT22;28250;52.320;0.360;2022-09-23T18:31:47;13.80;99.90
42617;DHT22;28250;52.320;0.360;2022-09-23T18:34:16;13.70;99.90
42617;DHT22;28250;52.320;0.360;2022-09-23T18:36:44;13.60;99.90
42617;DHT22;28250;52.320;0.360;2022-09-23T18:39:10;13.60;99.90
42617;DHT22;28250;52.320;0.360;2022-09-23T18:41:37;13.50;99.90
42617;DHT22;28250;52.320;0.360;2022-09-23T18:44:04;13.50;99.90
42617;DHT22;28250;52.320;0.360;2022-09-23T18:46:30;13.40;99.90
42617;DHT22;28250;52.320;0.360;2022-09-23T18:48:58;13.40;99.90
42617;DHT22;28250;52.320;0.360;2022-09-23T18:51:53;13.30;99.90
42617;DHT22;28250;52.320;0.360;2022-09-23T18:54:23;13.20;99.90
42617;DHT22;28250;52.320;0.360;2022-09-23T18:56:51;13.10;99.90
42617;DHT22;28250;52.320;0.360;2022-09-23T18:59:20;13.10;99.90
42617;DHT22;28250;52.320;0.360;2022-09-23T19:01:50;13.10;99.90
42617;DHT22;28250;52.320;0.360;2022-09-23T19:04:20;13.00;99.90
42617;DHT22;28250;52.320;0.360;2022-09-23T19:06:48;12.90;99.90
42617;DHT22;28250;52.320;0.360;2022-09-23T19:09:15;12.90;99.90
42617;DHT22;28250;52.320;0.360;2022-09-23T19:11:43;12.90;99.90
42617;DHT22;28250;52.320;0.360;2022-09-23T19:14:11;12.90;99.90
42617;DHT22;28250;52.320;0.360;2022-09-23T19:16:38;12.80;99.90
42617;DHT22;28250;52.320;0.360;2022-09-23T19:19:06;12.80;99.90
42617;DHT22;28250;52.320;0.360;2022-09-23T19:21:33;12.80;99.90
42617;DHT22;28250;52.320;0.360;2022-09-23T19:24:02;12.70;99.90
42617;DHT22;28250;52.320;0.360;2022-09-23T19:26:33;12.60;99.90
42617;DHT22;28250;52.320;0.360;2022-09-23T19:29:03;12.60;99.90
42617;DHT22;28250;52.320;0.360;2022-09-23T19:31:33;12.60;99.90
42617;DHT22;28250;52.320;0.360;2022-09-23T19:34:06;12.50;99.90
42617;DHT22;28250;52.320;0.360;2022-09-23T19:36:38;12.40;99.90